createdAt,value
2022-09-06T00:00:25.068Z,20.29
2022-09-06T00:02:52.447Z,20.37
2022-09-06T00:05:19.882Z,19.93
2022-09-06T00:07:46.975Z,19.93
2022-09-06T00:10:15.086Z,19.76
2022-09-06T00:12:42.313Z,19.83
2022-09-06T00:15:09.885Z,19.26
2022-09-06T00:17:37.324Z,18.81
2022-09-06T00:20:05.964Z,18.09
2022-09-06T00:22:33.050Z,18.03
2022-09-06T00:25:00.188Z,18.15
2022-09-06T00:27:28.765Z,18.15
2022-09-06T00:29:55.925Z,18.27
2022-09-06T00:32:23.257Z,18.40
2022-09-06T00:34:50.437Z,18.66
2022-09-06T00:37:17.556Z,18.96
2022-09-06T00:39:44.868Z,19.05
2022-09-06T00:42:13.253Z,19.22
2022-09-06T00:44:40.623Z,19.58
2022-09-06T00:47:08.501Z,19.01
2022-09-06T00:49:44.109Z,19.21
2022-09-06T00:52:15.240Z,18.92
2022-09-06T00:54:43.291Z,19.05
2022-09-06T00:57:11.189Z,19.13
2022-09-06T00:59:41.469Z,18.81
2022-09-06T01:02:09.574Z,19.13
2022-09-06T01:04:39.116Z,19.20
2022-09-06T01:07:20.534Z,19.25
2022-09-06T01:09:47.646Z,19.30
2022-09-06T01:12:36.005Z,19.13
2022-09-06T01:15:08.504Z,19.09
2022-09-06T01:17:38.438Z,18.84
2022-09-06T01:20:20.556Z,18.46
2022-09-06T01:23:04.683Z,18.29
2022-09-06T01:25:37.650Z,18.29
2022-09-06T01:28:23.414Z,17.75
2022-09-06T01:31:18.053Z,18.17
2022-09-06T01:34:03.461Z,18.37
2022-09-06T01:36:49.644Z,18.39
2022-09-06T01:39:25.211Z,18.24
2022-09-06T01:41:53.943Z,18.26
2022-09-06T01:44:23.027Z,18.20
2022-09-06T01:47:05.255Z,18.20
2022-09-06T01:50:12.301Z,18.32
2022-09-06T01:52:48.229Z,18.48
2022-09-06T01:55:27.494Z,18.42
2022-09-06T01:58:14.913Z,18.35
2022-09-06T02:01:01.401Z,18.24
2022-09-06T02:03:41.092Z,17.99
2022-09-06T02:06:15.782Z,18.37
2022-09-06T02:08:53.199Z,18.12
2022-09-06T02:11:22.108Z,17.69
2022-09-06T02:13:58.666Z,17.81
2022-09-06T02:16:30.815Z,17.52
2022-09-06T02:19:05.145Z,17.91
2022-09-06T02:21:36.656Z,18.25
2022-09-06T02:24:08.832Z,18.03
2022-09-06T02:26:40.781Z,17.94
2022-09-06T02:29:08.291Z,17.91
2022-09-06T02:31:58.180Z,18.03
2022-09-06T02:34:25.351Z,17.73
2022-09-06T02:36:52.643Z,17.81
2022-09-06T02:39:19.809Z,17.93
2022-09-06T02:41:48.219Z,17.63
2022-09-06T02:44:15.901Z,17.79
2022-09-06T02:46:43.016Z,17.74
2022-09-06T02:49:10.152Z,17.83
2022-09-06T02:51:40.822Z,17.93
2022-09-06T02:54:07.949Z,17.47
2022-09-06T02:56:36.584Z,17.77
2022-09-06T02:59:07.044Z,17.78
2022-09-06T03:01:34.655Z,17.71
2022-09-06T03:04:02.174Z,17.48
2022-09-06T03:06:29.340Z,17.66
2022-09-06T03:08:56.503Z,17.78
2022-09-06T03:11:23.717Z,17.29
2022-09-06T03:13:51.104Z,17.55
2022-09-06T03:16:19.380Z,17.58
2022-09-06T03:18:46.963Z,17.33
2022-09-06T03:21:14.576Z,17.47
2022-09-06T03:23:41.711Z,17.42
2022-09-06T03:26:08.895Z,17.41
2022-09-06T03:28:36.039Z,17.41
2022-09-06T03:31:03.698Z,17.25
2022-09-06T03:33:31.069Z,17.24
2022-09-06T03:36:00.540Z,17.52
2022-09-06T03:38:28.869Z,17.26
2022-09-06T03:40:56.394Z,17.35
2022-09-06T03:43:25.279Z,17.14
2022-09-06T03:45:54.810Z,17.29
2022-09-06T03:48:24.064Z,17.05
2022-09-06T03:50:54.217Z,17.15
2022-09-06T03:53:22.898Z,16.91
2022-09-06T03:55:53.129Z,16.93
2022-09-06T03:58:22.264Z,16.82
2022-09-06T04:00:50.068Z,16.91
2022-09-06T04:03:19.415Z,16.81
2022-09-06T04:05:46.565Z,16.84
2022-09-06T04:08:13.708Z,16.80
2022-09-06T04:10:40.979Z,16.84
2022-09-06T04:13:08.105Z,16.68
2022-09-06T04:15:35.247Z,16.78
2022-09-06T04:18:06.018Z,16.79
2022-09-06T04:20:35.716Z,16.73
2022-09-06T04:23:02.834Z,16.75
2022-09-06T04:25:29.984Z,16.58
2022-09-06T04:27:57.065Z,16.44
2022-09-06T04:30:24.244Z,16.36
2022-09-06T04:32:51.349Z,16.42
2022-09-06T04:35:18.467Z,16.41
2022-09-06T04:37:45.592Z,15.81
2022-09-06T04:40:13.317Z,15.34
2022-09-06T04:42:40.451Z,15.04
2022-09-06T04:45:08.027Z,15.01
2022-09-06T04:47:35.227Z,15.22
2022-09-06T04:50:02.333Z,15.35
2022-09-06T04:52:30.374Z,15.18
2022-09-06T04:54:57.796Z,15.31
2022-09-06T04:57:24.957Z,15.40
2022-09-06T04:59:52.101Z,15.30
2022-09-06T05:02:19.286Z,15.69
2022-09-06T05:04:46.423Z,15.83
2022-09-06T05:07:13.543Z,15.74
2022-09-06T05:09:40.649Z,15.47
2022-09-06T05:12:07.891Z,15.63
2022-09-06T05:14:35.237Z,16.00
2022-09-06T05:17:02.325Z,15.93
2022-09-06T05:19:29.452Z,16.08
2022-09-06T05:21:56.659Z,15.73
2022-09-06T05:24:23.786Z,15.82
2022-09-06T05:26:50.864Z,15.89
2022-09-06T05:29:18.048Z,15.71
2022-09-06T05:31:45.193Z,15.85
2022-09-06T05:34:13.435Z,15.86
2022-09-06T05:36:41.916Z,15.86
2022-09-06T05:39:09.084Z,15.64
2022-09-06T05:41:36.277Z,15.96
2022-09-06T05:44:04.198Z,15.68
2022-09-06T05:46:31.577Z,16.06
2022-09-06T05:49:07.703Z,16.12
2022-09-06T05:51:34.843Z,16.15
2022-09-06T05:54:02.001Z,16.08
2022-09-06T05:56:29.168Z,15.71
2022-09-06T05:58:56.290Z,15.80
2022-09-06T06:01:27.850Z,16.20
2022-09-06T06:04:00.400Z,16.12
2022-09-06T06:06:30.175Z,16.15
2022-09-06T06:08:57.407Z,16.30
2022-09-06T06:11:25.983Z,16.32
2022-09-06T06:13:53.659Z,16.74
2022-09-06T06:16:22.337Z,16.74
2022-09-06T06:18:52.209Z,16.63
2022-09-06T06:21:25.372Z,16.69
2022-09-06T06:24:00.685Z,16.93
2022-09-06T06:26:30.985Z,16.87
2022-09-06T06:29:01.691Z,16.88
2022-09-06T06:31:30.283Z,16.93
2022-09-06T06:33:58.308Z,16.77
2022-09-06T06:36:30.631Z,16.83
2022-09-06T06:38:58.456Z,16.72
2022-09-06T06:41:29.892Z,16.72
2022-09-06T06:43:59.656Z,16.77
2022-09-06T06:46:29.316Z,16.91
2022-09-06T06:48:56.458Z,17.08
2022-09-06T06:51:29.423Z,17.06
2022-09-06T06:53:59.969Z,17.14
2022-09-06T06:56:53.328Z,16.94
2022-09-06T06:59:20.692Z,16.89
2022-09-06T07:01:49.887Z,16.99
2022-09-06T07:04:17.147Z,17.03
2022-09-06T07:12:29.764Z,17.29
2022-09-06T07:14:56.869Z,17.62
2022-09-06T07:17:23.985Z,17.74
2022-09-06T07:22:39.450Z,17.95
2022-09-06T07:25:07.713Z,18.19
2022-09-06T07:27:50.475Z,18.30
2022-09-06T07:30:19.934Z,18.38
2022-09-06T07:32:47.222Z,18.35
2022-09-06T07:35:14.429Z,18.47
2022-09-06T07:37:41.520Z,18.48
2022-09-06T07:40:09.708Z,18.52
2022-09-06T07:42:36.993Z,18.59
2022-09-06T07:45:05.304Z,18.68
2022-09-06T07:53:09.647Z,18.89
2022-09-06T07:55:40.228Z,19.03
2022-09-06T07:58:07.357Z,19.11
2022-09-06T08:00:34.638Z,19.20
2022-09-06T08:03:01.781Z,19.34
2022-09-06T08:11:03.635Z,19.73
2022-09-06T08:13:30.733Z,19.84
2022-09-06T08:16:02.328Z,19.94
2022-09-06T08:18:29.519Z,20.05
2022-09-06T08:20:56.651Z,20.02
2022-09-06T08:23:23.793Z,20.17
2022-09-06T08:25:58.493Z,20.26
2022-09-06T08:28:28.767Z,20.37
2022-09-06T08:31:04.638Z,20.52
2022-09-06T08:33:31.881Z,20.61
2022-09-06T08:35:59.196Z,20.64
2022-09-06T08:38:28.017Z,20.75
2022-09-06T08:41:07.832Z,20.83
2022-09-06T08:43:35.362Z,20.88
2022-09-06T08:46:04.220Z,20.89
2022-09-06T08:48:34.316Z,21.03
2022-09-06T08:51:29.139Z,21.06
2022-09-06T08:54:04.100Z,21.24
2022-09-06T08:57:10.388Z,21.34
2022-09-06T08:59:40.382Z,21.44
2022-09-06T09:02:15.213Z,21.52
2022-09-06T09:04:56.913Z,21.62
2022-09-06T09:07:50.119Z,21.66
2022-09-06T09:10:34.612Z,21.72
2022-09-06T09:13:07.451Z,21.82
2022-09-06T09:15:39.665Z,21.96
2022-09-06T09:18:07.802Z,22.16
2022-09-06T09:20:34.902Z,22.30
2022-09-06T09:23:02.075Z,22.33
2022-09-06T09:25:35.935Z,22.31
2022-09-06T09:28:03.216Z,22.54
2022-09-06T09:30:52.519Z,22.47
2022-09-06T09:33:33.501Z,22.41
2022-09-06T09:36:09.599Z,22.48
2022-09-06T09:38:58.169Z,22.36
2022-09-06T09:41:38.330Z,22.52
2022-09-06T09:44:16.173Z,22.57
2022-09-06T09:46:43.841Z,22.67
2022-09-06T09:49:28.567Z,22.66
2022-09-06T09:52:09.813Z,22.65
2022-09-06T09:54:40.165Z,22.67
2022-09-06T09:57:11.694Z,22.87
2022-09-06T09:59:45.007Z,22.71
2022-09-06T10:02:30.270Z,22.91
2022-09-06T10:05:21.134Z,22.94
2022-09-06T10:07:50.240Z,22.94
2022-09-06T10:10:47.567Z,23.00
2022-09-06T10:13:23.635Z,23.02
2022-09-06T10:15:53.131Z,23.16
2022-09-06T10:18:20.449Z,23.29
2022-09-06T10:20:52.696Z,23.34
2022-09-06T10:26:38.651Z,23.30
2022-09-06T10:29:09.638Z,23.39
2022-09-06T10:31:39.496Z,23.48
2022-09-06T10:34:28.348Z,23.53
2022-09-06T10:37:20.103Z,23.53
2022-09-06T10:39:57.633Z,23.64
2022-09-06T10:42:46.784Z,23.77
2022-09-06T10:45:16.767Z,23.99
2022-09-06T10:48:13.876Z,24.02
2022-09-06T10:50:44.280Z,23.98
2022-09-06T10:53:17.814Z,24.08
2022-09-06T10:55:48.622Z,24.22
2022-09-06T10:58:26.784Z,24.31
2022-09-06T11:00:55.257Z,24.40
2022-09-06T11:06:28.238Z,24.70
2022-09-06T11:09:09.025Z,24.69
2022-09-06T11:11:46.032Z,24.59
2022-09-06T11:14:15.515Z,24.70
2022-09-06T11:16:57.609Z,24.69
2022-09-06T11:19:41.008Z,24.68
2022-09-06T11:22:36.466Z,24.65
2022-09-06T11:25:39.518Z,24.80
2022-09-06T11:28:12.946Z,24.85
2022-09-06T11:30:46.948Z,24.63
2022-09-06T11:33:26.384Z,24.83
2022-09-06T11:36:14.171Z,24.99
2022-09-06T11:38:42.622Z,24.91
2022-09-06T11:41:17.353Z,24.87
2022-09-06T11:43:52.774Z,24.93
2022-09-06T11:46:35.083Z,25.16
2022-09-06T11:49:07.842Z,25.09
2022-09-06T11:51:36.667Z,25.30
2022-09-06T11:54:44.752Z,25.32
2022-09-06T11:57:20.700Z,25.42
2022-09-06T11:59:47.760Z,25.60
2022-09-06T12:02:33.801Z,25.56
2022-09-06T12:05:01.181Z,25.96
2022-09-06T12:07:29.935Z,25.98
2022-09-06T12:09:57.670Z,26.08
2022-09-06T12:12:45.696Z,25.88
2022-09-06T12:15:44.360Z,26.07
2022-09-06T12:18:43.282Z,25.95
2022-09-06T12:21:30.825Z,26.05
2022-09-06T12:23:58.166Z,26.27
2022-09-06T12:26:49.702Z,26.13
2022-09-06T12:29:26.329Z,26.63
2022-09-06T12:32:04.539Z,26.81
2022-09-06T12:34:34.488Z,26.62
2022-09-06T12:37:07.249Z,26.99
2022-09-06T12:39:35.041Z,27.03
2022-09-06T12:42:05.658Z,27.30
2022-09-06T12:44:36.028Z,27.62
2022-09-06T12:47:10.715Z,27.76
2022-09-06T12:49:37.835Z,27.46
2022-09-06T12:52:15.614Z,27.59
2022-09-06T12:54:48.784Z,28.04
2022-09-06T12:57:21.774Z,28.16
2022-09-06T12:59:54.601Z,27.87
2022-09-06T13:02:47.863Z,27.69
2022-09-06T13:05:15.202Z,27.47
2022-09-06T13:07:46.124Z,27.52
2022-09-06T13:10:17.379Z,27.83
2022-09-06T13:12:46.701Z,27.83
2022-09-06T13:15:19.526Z,27.73
2022-09-06T13:17:47.273Z,28.15
2022-09-06T13:20:30.378Z,27.27
2022-09-06T13:23:12.960Z,27.60
2022-09-06T13:25:51.873Z,27.70
2022-09-06T13:28:26.007Z,28.10
2022-09-06T13:31:14.198Z,28.52
2022-09-06T13:33:41.885Z,29.06
2022-09-06T13:36:20.596Z,28.97
2022-09-06T13:38:47.750Z,29.24
2022-09-06T13:41:26.727Z,29.76
2022-09-06T13:44:16.809Z,29.38
2022-09-06T13:46:44.323Z,28.92
2022-09-06T13:49:11.586Z,28.83
2022-09-06T13:51:39.300Z,28.46
2022-09-06T13:54:11.207Z,28.20
2022-09-06T13:56:42.555Z,28.46
2022-09-06T13:59:10.449Z,28.83
2022-09-06T14:02:21.303Z,28.09
2022-09-06T14:04:48.573Z,27.85
2022-09-06T14:07:15.759Z,28.09
2022-09-06T14:09:42.885Z,27.48
2022-09-06T14:12:10.526Z,28.32
2022-09-06T14:14:37.772Z,28.11
2022-09-06T14:17:05.172Z,28.35
2022-09-06T14:19:32.663Z,29.02
2022-09-06T14:21:59.784Z,28.50
2022-09-06T14:24:27.157Z,30.21
2022-09-06T14:26:54.381Z,34.58
2022-09-06T14:29:21.559Z,32.18
2022-09-06T14:31:49.060Z,33.88
2022-09-06T14:34:16.552Z,36.94
2022-09-06T14:36:43.648Z,40.42
2022-09-06T14:39:11.024Z,40.27
2022-09-06T14:41:38.224Z,42.18
2022-09-06T14:44:05.517Z,37.26
2022-09-06T14:46:32.704Z,38.74
2022-09-06T14:49:09.937Z,37.17
2022-09-06T14:51:38.533Z,36.04
2022-09-06T14:54:07.514Z,36.92
2022-09-06T14:56:35.903Z,33.35
2022-09-06T14:59:02.902Z,37.18
2022-09-06T15:01:37.804Z,41.06
2022-09-06T15:04:07.841Z,41.69
2022-09-06T15:06:39.074Z,33.60
2022-09-06T15:09:07.821Z,30.05
2022-09-06T15:11:41.323Z,29.48
2022-09-06T15:14:31.712Z,27.71
2022-09-06T15:17:04.083Z,27.61
2022-09-06T15:19:33.767Z,28.39
2022-09-06T15:22:00.920Z,33.96
2022-09-06T15:24:28.703Z,31.22
2022-09-06T15:26:56.375Z,29.34
2022-09-06T15:29:23.575Z,31.26
2022-09-06T15:31:51.773Z,40.03
2022-09-06T15:34:21.169Z,42.06
2022-09-06T15:36:48.788Z,43.13
2022-09-06T15:39:16.159Z,44.33
2022-09-06T15:41:43.388Z,42.73
2022-09-06T15:44:15.974Z,41.68
2022-09-06T15:46:43.216Z,40.31
2022-09-06T15:49:13.540Z,37.31
2022-09-06T15:51:42.163Z,35.05
2022-09-06T15:54:10.756Z,32.84
2022-09-06T15:56:38.006Z,31.63
2022-09-06T15:59:05.851Z,33.18
2022-09-06T16:01:34.186Z,38.07
2022-09-06T16:04:06.597Z,39.37
2022-09-06T16:06:39.653Z,42.02
2022-09-06T16:09:09.295Z,42.69
2022-09-06T16:11:37.131Z,43.10
2022-09-06T16:14:06.083Z,41.24
2022-09-06T16:16:34.465Z,43.21
2022-09-06T16:19:02.428Z,43.82
2022-09-06T16:21:32.120Z,44.14
2022-09-06T16:24:02.102Z,43.27
2022-09-06T16:26:32.835Z,42.56
2022-09-06T16:29:01.416Z,41.01
2022-09-06T16:31:29.412Z,33.14
2022-09-06T16:33:57.810Z,33.70
2022-09-06T16:36:25.259Z,39.10
2022-09-06T16:38:52.945Z,39.51
2022-09-06T16:41:32.206Z,39.23
2022-09-06T16:43:59.397Z,39.59
2022-09-06T16:46:29.940Z,35.80
2022-09-06T16:49:01.467Z,35.07
2022-09-06T16:51:31.120Z,32.32
2022-09-06T16:53:59.426Z,29.78
2022-09-06T16:56:28.596Z,29.27
2022-09-06T16:59:00.659Z,30.56
2022-09-06T17:01:29.695Z,30.12
2022-09-06T17:03:57.512Z,30.11
2022-09-06T17:06:25.015Z,29.76
2022-09-06T17:08:52.132Z,29.88
2022-09-06T17:11:21.075Z,29.91
2022-09-06T17:13:50.622Z,29.48
2022-09-06T17:16:38.157Z,29.03
2022-09-06T17:19:07.001Z,29.56
2022-09-06T17:21:35.447Z,29.66
2022-09-06T17:24:04.619Z,29.37
2022-09-06T17:26:34.512Z,28.52
2022-09-06T17:29:01.739Z,28.30
2022-09-06T17:31:29.434Z,28.08
2022-09-06T17:33:56.933Z,27.51
2022-09-06T17:36:27.555Z,27.33
2022-09-06T17:39:10.705Z,26.70
2022-09-06T17:41:40.536Z,26.83
2022-09-06T17:44:12.998Z,26.79
2022-09-06T17:46:57.062Z,26.32
2022-09-06T17:49:29.079Z,25.81
2022-09-06T17:51:56.598Z,25.78
2022-09-06T17:54:24.094Z,25.40
2022-09-06T17:56:51.301Z,25.36
2022-09-06T17:59:18.586Z,25.26
2022-09-06T18:01:46.602Z,24.86
2022-09-06T18:04:14.396Z,24.56
2022-09-06T18:06:43.430Z,24.87
2022-09-06T18:09:14.702Z,25.03
2022-09-06T18:11:45.596Z,24.74
2022-09-06T18:14:16.673Z,24.38
2022-09-06T18:16:49.053Z,24.41
2022-09-06T18:19:17.969Z,24.33
2022-09-06T18:21:46.059Z,24.32
2022-09-06T18:24:16.363Z,24.44
2022-09-06T18:26:44.394Z,24.31
2022-09-06T18:29:14.605Z,24.01
2022-09-06T18:31:42.765Z,24.17
2022-09-06T18:34:10.128Z,23.70
2022-09-06T18:36:38.871Z,23.75
2022-09-06T18:39:06.335Z,23.67
2022-09-06T18:41:52.726Z,23.46
2022-09-06T18:44:19.932Z,23.30
2022-09-06T18:46:47.094Z,23.19
2022-09-06T18:49:15.398Z,23.05
2022-09-06T18:51:44.546Z,23.04
2022-09-06T18:54:11.880Z,22.96
2022-09-06T18:56:39.105Z,22.84
2022-09-06T18:59:07.047Z,22.78
2022-09-06T19:01:34.942Z,22.44
2022-09-06T19:04:03.923Z,22.56
2022-09-06T19:06:32.563Z,22.62
2022-09-06T19:09:01.398Z,22.65
2022-09-06T19:11:29.255Z,22.67
2022-09-06T19:13:57.574Z,22.30
2022-09-06T19:16:27.425Z,22.29
2022-09-06T19:18:56.061Z,22.31
2022-09-06T19:21:25.357Z,22.45
2022-09-06T19:24:11.937Z,22.34
2022-09-06T19:26:41.696Z,22.43
2022-09-06T19:29:13.876Z,22.28
2022-09-06T19:31:42.491Z,22.49
2022-09-06T19:34:10.194Z,22.44
2022-09-06T19:36:37.521Z,22.34
2022-09-06T19:39:07.266Z,22.24
2022-09-06T19:41:37.965Z,22.16
2022-09-06T19:44:07.712Z,22.14
2022-09-06T19:46:35.706Z,22.21
2022-09-06T19:49:03.397Z,22.41
2022-09-06T19:51:31.241Z,22.30
2022-09-06T19:53:59.727Z,22.29
2022-09-06T19:56:33.235Z,22.41
2022-09-06T19:59:03.872Z,22.31
2022-09-06T20:01:33.166Z,22.44
2022-09-06T20:04:03.316Z,22.33
2022-09-06T20:06:31.323Z,22.23
2022-09-06T20:09:00.121Z,22.01
2022-09-06T20:11:29.971Z,22.23
2022-09-06T20:13:57.497Z,22.24
2022-09-06T20:16:25.098Z,22.26
2022-09-06T20:18:54.442Z,22.19
2022-09-06T20:21:22.432Z,22.11
2022-09-06T20:23:51.192Z,22.20
2022-09-06T20:26:19.559Z,22.31
2022-09-06T20:28:47.300Z,22.36
2022-09-06T20:31:17.039Z,22.39
2022-09-06T20:33:49.329Z,22.26
2022-09-06T20:36:18.425Z,22.18
2022-09-06T20:38:46.994Z,22.21
2022-09-06T20:41:16.689Z,22.22
2022-09-06T20:43:44.434Z,22.09
2022-09-06T20:46:14.551Z,22.20
2022-09-06T20:48:45.021Z,22.18
2022-09-06T20:51:15.866Z,22.17
2022-09-06T20:53:43.043Z,22.16
2022-09-06T20:56:13.205Z,22.14
2022-09-06T20:58:41.371Z,22.08
2022-09-06T21:01:11.904Z,22.12
2022-09-06T21:03:40.438Z,22.05
2022-09-06T21:06:09.255Z,22.13
2022-09-06T21:08:41.845Z,22.15
2022-09-06T21:11:10.511Z,22.22
2022-09-06T21:13:38.089Z,22.14
2022-09-06T21:16:06.507Z,22.07
2022-09-06T21:18:34.726Z,21.90
2022-09-06T21:21:07.181Z,21.99
2022-09-06T21:23:37.396Z,21.94
2022-09-06T21:26:10.050Z,21.95
2022-09-06T21:28:39.844Z,21.91
2022-09-06T21:31:15.330Z,21.97
2022-09-06T21:33:46.098Z,21.98
2022-09-06T21:36:15.963Z,21.99
2022-09-06T21:38:45.640Z,22.06
2022-09-06T21:41:14.695Z,22.08
2022-09-06T21:43:42.807Z,22.10
2022-09-06T21:46:15.616Z,22.17
2022-09-06T21:48:47.893Z,22.18
2022-09-06T21:51:18.473Z,22.27
2022-09-06T21:53:48.391Z,22.15
2022-09-06T21:56:16.486Z,22.14
2022-09-06T21:58:44.542Z,22.11
2022-09-06T22:01:11.817Z,22.07
2022-09-06T22:03:42.205Z,22.05
2022-09-06T22:06:18.569Z,21.91
2022-09-06T22:08:47.122Z,22.03
2022-09-06T22:11:19.974Z,21.91
2022-09-06T22:13:47.921Z,21.87
2022-09-06T22:16:22.416Z,21.88
2022-09-06T22:18:51.371Z,21.85
2022-09-06T22:21:21.189Z,21.87
2022-09-06T22:23:52.761Z,21.84
2022-09-06T22:26:21.086Z,21.80
2022-09-06T22:28:52.459Z,21.78
2022-09-06T22:31:19.707Z,21.83
2022-09-06T22:33:46.873Z,21.92
2022-09-06T22:36:14.263Z,21.85
2022-09-06T22:38:41.366Z,21.94
2022-09-06T22:41:09.295Z,21.84
2022-09-06T22:43:36.631Z,21.89
2022-09-06T22:46:10.062Z,21.60
2022-09-06T22:48:37.287Z,21.55
2022-09-06T22:51:06.015Z,21.43
2022-09-06T22:53:33.465Z,20.88
2022-09-06T22:56:01.471Z,19.94
2022-09-06T22:58:28.749Z,19.18
2022-09-06T23:00:56.715Z,18.64
2022-09-06T23:03:23.980Z,18.48
2022-09-06T23:05:51.170Z,18.45
2022-09-06T23:08:18.322Z,18.79
2022-09-06T23:10:45.476Z,19.20
2022-09-06T23:13:12.677Z,19.39
2022-09-06T23:15:40.897Z,19.69
2022-09-06T23:18:08.507Z,19.80
2022-09-06T23:20:37.138Z,19.89
2022-09-06T23:23:05.287Z,18.93
2022-09-06T23:25:32.432Z,18.20
2022-09-06T23:28:00.284Z,17.77
2022-09-06T23:30:27.429Z,17.64
2022-09-06T23:32:56.334Z,17.94
2022-09-06T23:35:24.033Z,18.71
2022-09-06T23:37:51.736Z,18.48
2022-09-06T23:40:19.516Z,18.70
2022-09-06T23:42:47.159Z,18.93
2022-09-06T23:45:14.602Z,19.10
2022-09-06T23:47:41.798Z,19.07
2022-09-06T23:50:09.332Z,19.07
2022-09-06T23:52:36.584Z,18.95
2022-09-06T23:55:04.108Z,18.83
2022-09-06T23:57:31.309Z,18.80
2022-09-06T23:59:58.419Z,18.85
